createdAt,value
2022-10-04T00:00:18.416Z,7.2
2022-10-04T00:01:24.695Z,7.2
2022-10-04T00:02:30.965Z,7.2
2022-10-04T00:03:36.318Z,7.2
2022-10-04T00:04:41.553Z,7.2
2022-10-04T00:05:47.816Z,7.2
2022-10-04T00:06:54.085Z,7.2
2022-10-04T00:08:00.370Z,7.2
2022-10-04T00:09:06.638Z,7.2
2022-10-04T00:10:12.907Z,7.1
2022-10-04T00:11:19.247Z,7.1
2022-10-04T00:12:25.446Z,7.1
2022-10-04T00:13:31.729Z,7.1
2022-10-04T00:14:38.024Z,7.1
2022-10-04T00:15:44.286Z,7.1
2022-10-04T00:16:50.582Z,7.1
2022-10-04T00:17:56.811Z,7.1
2022-10-04T00:19:02.104Z,7
2022-10-04T00:20:08.373Z,7
2022-10-04T00:21:14.648Z,7
2022-10-04T00:22:20.955Z,7
2022-10-04T00:23:27.197Z,7
2022-10-04T00:24:33.469Z,6.9
2022-10-04T00:25:39.732Z,6.8
2022-10-04T00:26:45.041Z,6.7
2022-10-04T00:27:50.333Z,6.6
2022-10-04T00:28:56.610Z,6.5
2022-10-04T00:30:01.893Z,6.4
2022-10-04T00:31:07.175Z,6.4
2022-10-04T00:32:13.445Z,6.3
2022-10-04T00:33:19.731Z,6.3
2022-10-04T00:34:26.002Z,6.2
2022-10-04T00:35:32.272Z,6.2
2022-10-04T00:36:38.575Z,6.2
2022-10-04T00:37:44.821Z,6.1
2022-10-04T00:38:51.087Z,6.2
2022-10-04T00:39:57.370Z,6.2
2022-10-04T00:41:03.626Z,6.2
2022-10-04T00:42:09.907Z,6.2
2022-10-04T00:43:16.171Z,6.2
2022-10-04T00:44:22.443Z,6.2
2022-10-04T00:45:27.731Z,6.2
2022-10-04T00:46:34.006Z,6.2
2022-10-04T00:47:40.309Z,6.2
2022-10-04T00:48:46.552Z,6.3
2022-10-04T00:49:52.822Z,6.3
2022-10-04T00:50:59.100Z,6.3
2022-10-04T00:52:05.373Z,6.4
2022-10-04T00:53:10.668Z,6.4
2022-10-04T00:54:15.957Z,6.5
2022-10-04T00:55:22.231Z,6.5
2022-10-04T00:56:28.516Z,6.5
2022-10-04T00:57:34.769Z,6.5
2022-10-04T00:58:41.047Z,6.6
2022-10-04T00:59:47.337Z,6.6
2022-10-04T01:00:53.602Z,6.6
2022-10-04T01:01:59.858Z,6.6
2022-10-04T01:03:06.135Z,6.6
2022-10-04T01:04:12.408Z,6.6
2022-10-04T01:05:18.687Z,6.6
2022-10-04T01:06:24.947Z,6.7
2022-10-04T01:07:31.220Z,6.6
2022-10-04T01:08:36.510Z,6.6
2022-10-04T01:09:42.793Z,6.7
2022-10-04T01:10:49.053Z,6.7
2022-10-04T01:11:55.324Z,6.7
2022-10-04T01:13:01.603Z,6.7
2022-10-04T01:14:07.866Z,6.7
2022-10-04T01:15:14.149Z,6.7
2022-10-04T01:16:19.443Z,6.7
2022-10-04T01:17:24.727Z,6.7
2022-10-04T01:18:30.020Z,6.7
2022-10-04T01:19:35.315Z,6.7
2022-10-04T01:20:40.613Z,6.7
2022-10-04T01:21:45.943Z,6.8
2022-10-04T01:22:52.181Z,6.7
2022-10-04T01:23:58.447Z,6.7
2022-10-04T01:25:04.728Z,6.7
2022-10-04T01:26:10.991Z,6.7
2022-10-04T01:27:17.265Z,6.7
2022-10-04T01:28:23.533Z,6.6
2022-10-04T01:29:29.804Z,6.5
2022-10-04T01:30:36.078Z,6.5
2022-10-04T01:31:42.350Z,6.4
2022-10-04T01:32:48.662Z,6.4
2022-10-04T01:33:54.922Z,6.4
2022-10-04T01:35:01.196Z,6.3
2022-10-04T01:36:06.454Z,6.3
2022-10-04T01:37:12.728Z,6.3
2022-10-04T01:38:19.003Z,6.3
2022-10-04T01:39:25.350Z,6.3
2022-10-04T01:40:31.549Z,6.4
2022-10-04T01:41:37.828Z,6.4
2022-10-04T01:42:44.110Z,6.4
2022-10-04T01:43:49.391Z,6.4
2022-10-04T01:44:54.684Z,6.4
2022-10-04T01:45:59.978Z,6.4
2022-10-04T01:47:05.275Z,6.5
2022-10-04T01:48:11.571Z,6.5
2022-10-04T01:49:17.810Z,6.5
2022-10-04T01:50:24.147Z,6.5
2022-10-04T01:51:30.361Z,6.5
2022-10-04T01:52:36.630Z,6.5
2022-10-04T01:53:42.923Z,6.5
2022-10-04T01:54:49.181Z,6.5
2022-10-04T01:55:55.440Z,6.5
2022-10-04T01:57:01.714Z,6.5
2022-10-04T01:58:07.995Z,6.5
2022-10-04T01:59:14.273Z,6.5
2022-10-04T02:00:20.533Z,6.5
2022-10-04T02:01:25.819Z,6.5
2022-10-04T02:02:32.102Z,6.4
2022-10-04T02:03:38.364Z,6.4
2022-10-04T02:04:44.637Z,6.4
2022-10-04T02:05:50.911Z,6.4
2022-10-04T02:06:57.186Z,6.4
2022-10-04T02:08:03.459Z,6.4
2022-10-04T02:09:08.761Z,6.3
2022-10-04T02:10:14.054Z,6.3
2022-10-04T02:11:20.315Z,6.3
2022-10-04T02:12:26.585Z,6.3
2022-10-04T02:13:32.862Z,6.3
2022-10-04T02:14:39.131Z,6.3
2022-10-04T02:15:45.405Z,6.3
2022-10-04T02:16:51.679Z,6.3
2022-10-04T02:17:57.949Z,6.3
2022-10-04T02:19:04.225Z,6.3
2022-10-04T02:20:10.498Z,6.3
2022-10-04T02:21:16.763Z,6.3
2022-10-04T02:22:23.044Z,6.3
2022-10-04T02:23:29.309Z,6.3
2022-10-04T02:24:34.603Z,6.3
2022-10-04T02:25:40.906Z,6.3
2022-10-04T02:26:47.148Z,6.3
2022-10-04T02:27:53.425Z,6.3
2022-10-04T02:28:59.689Z,6.3
2022-10-04T02:30:05.983Z,6.3
2022-10-04T02:31:12.234Z,6.3
2022-10-04T02:32:17.531Z,6.3
2022-10-04T02:33:22.829Z,6.3
2022-10-04T02:34:28.126Z,6.3
2022-10-04T02:35:33.426Z,6.3
2022-10-04T02:36:39.721Z,6.3
2022-10-04T02:37:45.957Z,6.3
2022-10-04T02:38:52.258Z,6.3
2022-10-04T02:39:58.495Z,6.3
2022-10-04T02:41:04.776Z,6.3
2022-10-04T02:42:11.110Z,6.3
2022-10-04T02:43:17.357Z,6.3
2022-10-04T02:44:23.605Z,6.3
2022-10-04T02:45:29.858Z,6.3
2022-10-04T02:46:36.129Z,6.3
2022-10-04T02:47:42.454Z,6.3
2022-10-04T02:48:48.675Z,6.2
2022-10-04T02:49:53.963Z,6.2
2022-10-04T02:51:00.234Z,6.3
2022-10-04T02:52:06.511Z,6.2
2022-10-04T02:53:12.841Z,6.3
2022-10-04T02:54:19.078Z,6.3
2022-10-04T02:55:25.322Z,6.2
2022-10-04T02:56:31.628Z,6.2
2022-10-04T02:57:36.899Z,6.2
2022-10-04T02:58:42.198Z,6.2
2022-10-04T02:59:47.493Z,6.2
2022-10-04T03:00:52.772Z,6.2
2022-10-04T03:01:58.070Z,6.2
2022-10-04T03:03:03.394Z,6.2
2022-10-04T03:04:09.627Z,6.2
2022-10-04T03:05:15.929Z,6.2
2022-10-04T03:06:22.172Z,6.2
2022-10-04T03:07:28.443Z,6.2
2022-10-04T03:08:34.725Z,6.2
2022-10-04T03:09:40.984Z,6.2
2022-10-04T03:10:47.258Z,6.2
2022-10-04T03:11:53.532Z,6.2
2022-10-04T03:12:59.810Z,6.2
2022-10-04T03:14:06.164Z,6.2
2022-10-04T03:15:12.351Z,6.2
2022-10-04T03:16:18.630Z,6.2
2022-10-04T03:17:23.970Z,6.1
2022-10-04T03:18:30.238Z,6.1
2022-10-04T03:19:36.497Z,6
2022-10-04T03:20:42.754Z,6
2022-10-04T03:21:49.009Z,5.9
2022-10-04T03:22:55.279Z,5.9
2022-10-04T03:24:01.553Z,5.8
2022-10-04T03:25:06.851Z,5.7
2022-10-04T03:26:12.132Z,5.7
2022-10-04T03:27:17.443Z,5.6
2022-10-04T03:28:22.723Z,5.6
2022-10-04T03:29:29.012Z,5.6
2022-10-04T03:30:35.275Z,5.6
2022-10-04T03:31:40.563Z,5.6
2022-10-04T03:32:46.840Z,5.6
2022-10-04T03:33:53.107Z,5.7
2022-10-04T03:34:59.374Z,5.7
2022-10-04T03:36:05.648Z,5.7
2022-10-04T03:37:11.975Z,5.7
2022-10-04T03:38:18.248Z,5.7
2022-10-04T03:39:24.464Z,5.7
2022-10-04T03:40:30.740Z,5.8
2022-10-04T03:41:37.025Z,5.8
2022-10-04T03:42:43.289Z,5.8
2022-10-04T03:43:49.549Z,5.8
2022-10-04T03:44:55.851Z,5.9
2022-10-04T03:46:01.122Z,5.9
2022-10-04T03:47:07.399Z,5.9
2022-10-04T03:48:13.659Z,5.9
2022-10-04T03:49:19.932Z,5.9
2022-10-04T03:50:25.229Z,5.9
2022-10-04T03:51:30.519Z,5.9
2022-10-04T03:52:35.824Z,5.9
2022-10-04T03:53:41.106Z,5.9
2022-10-04T03:54:47.374Z,5.9
2022-10-04T03:55:53.650Z,5.9
2022-10-04T03:56:59.923Z,5.9
2022-10-04T03:58:06.201Z,5.9
2022-10-04T03:59:12.464Z,5.9
2022-10-04T04:00:18.739Z,5.9
2022-10-04T04:01:25.019Z,5.9
2022-10-04T04:02:31.279Z,5.9
2022-10-04T04:03:37.558Z,5.9
2022-10-04T04:04:43.824Z,5.9
2022-10-04T04:05:50.104Z,5.9
2022-10-04T04:06:56.366Z,5.8
2022-10-04T04:08:01.664Z,5.7
2022-10-04T04:09:07.929Z,5.7
2022-10-04T04:10:14.200Z,5.6
2022-10-04T04:11:20.480Z,5.5
2022-10-04T04:12:26.747Z,5.4
2022-10-04T04:13:33.020Z,5.4
2022-10-04T04:14:39.291Z,5.3
2022-10-04T04:15:44.593Z,5.3
2022-10-04T04:16:49.876Z,5.3
2022-10-04T04:17:55.182Z,5.3
2022-10-04T04:19:00.467Z,5.3
2022-10-04T04:20:06.743Z,5.3
2022-10-04T04:21:13.012Z,5.3
2022-10-04T04:22:19.311Z,5.3
2022-10-04T04:23:25.559Z,5.3
2022-10-04T04:24:31.825Z,5.4
2022-10-04T04:25:38.097Z,5.4
2022-10-04T04:26:44.372Z,5.4
2022-10-04T04:27:50.651Z,5.4
2022-10-04T04:28:56.920Z,5.5
2022-10-04T04:30:03.187Z,5.5
2022-10-04T04:31:09.460Z,5.6
2022-10-04T04:32:15.736Z,5.6
2022-10-04T04:33:21.015Z,5.6
2022-10-04T04:34:27.289Z,5.6
2022-10-04T04:35:33.567Z,5.6
2022-10-04T04:36:39.870Z,5.6
2022-10-04T04:37:46.112Z,5.6
2022-10-04T04:38:52.380Z,5.6
2022-10-04T04:39:58.680Z,5.7
2022-10-04T04:41:03.959Z,5.7
2022-10-04T04:42:09.272Z,5.7
2022-10-04T04:43:14.544Z,5.7
2022-10-04T04:44:19.848Z,5.7
2022-10-04T04:45:26.102Z,5.7
2022-10-04T04:46:32.374Z,5.7
2022-10-04T04:47:38.652Z,5.7
2022-10-04T04:48:44.913Z,5.7
2022-10-04T04:49:51.205Z,5.7
2022-10-04T04:50:57.464Z,5.7
2022-10-04T04:52:03.756Z,5.7
2022-10-04T04:53:10.030Z,5.7
2022-10-04T04:54:16.288Z,5.7
2022-10-04T04:55:22.544Z,5.7
2022-10-04T04:56:28.844Z,5.7
2022-10-04T04:57:35.103Z,5.7
2022-10-04T04:58:40.388Z,5.7
2022-10-04T04:59:46.653Z,5.7
2022-10-04T05:00:52.926Z,5.7
2022-10-04T05:01:59.204Z,5.7
2022-10-04T05:03:05.475Z,5.7
2022-10-04T05:04:11.745Z,5.7
2022-10-04T05:05:18.013Z,5.7
2022-10-04T05:06:23.328Z,5.7
2022-10-04T05:07:28.609Z,5.6
2022-10-04T05:08:34.882Z,5.6
2022-10-04T05:09:41.171Z,5.6
2022-10-04T05:10:47.416Z,5.6
2022-10-04T05:11:53.700Z,5.6
2022-10-04T05:12:59.970Z,5.6
2022-10-04T05:14:06.268Z,5.6
2022-10-04T05:15:12.509Z,5.6
2022-10-04T05:16:18.780Z,5.6
2022-10-04T05:17:25.056Z,5.6
2022-10-04T05:18:31.338Z,5.6
2022-10-04T05:19:37.603Z,5.6
2022-10-04T05:20:43.874Z,5.6
2022-10-04T05:21:49.162Z,5.6
2022-10-04T05:22:55.442Z,5.6
2022-10-04T05:24:01.708Z,5.6
2022-10-04T05:25:07.973Z,5.5
2022-10-04T05:26:14.262Z,5.5
2022-10-04T05:27:20.521Z,5.5
2022-10-04T05:28:26.788Z,5.5
2022-10-04T05:29:33.065Z,5.5
2022-10-04T05:30:38.365Z,5.5
2022-10-04T05:31:43.648Z,5.5
2022-10-04T05:32:48.951Z,5.5
2022-10-04T05:33:54.237Z,5.5
2022-10-04T05:35:00.536Z,5.6
2022-10-04T05:36:05.810Z,5.5
2022-10-04T05:37:11.103Z,5.5
2022-10-04T05:38:17.367Z,5.5
2022-10-04T05:39:23.673Z,5.5
2022-10-04T05:40:29.913Z,5.5
2022-10-04T05:41:36.189Z,5.6
2022-10-04T05:42:42.546Z,5.6
2022-10-04T05:43:48.765Z,5.6
2022-10-04T05:44:55.027Z,5.6
2022-10-04T05:46:01.279Z,5.6
2022-10-04T05:47:07.560Z,5.6
2022-10-04T05:48:13.816Z,5.6
2022-10-04T05:49:20.093Z,5.7
2022-10-04T05:50:26.365Z,5.7
2022-10-04T05:51:31.686Z,5.7
2022-10-04T05:52:37.927Z,5.7
2022-10-04T05:53:44.197Z,5.8
2022-10-04T05:54:50.473Z,5.8
2022-10-04T05:55:56.743Z,5.8
2022-10-04T05:57:03.074Z,5.8
2022-10-04T05:58:09.289Z,5.8
2022-10-04T05:59:14.591Z,5.9
2022-10-04T06:00:19.879Z,5.9
2022-10-04T06:01:26.145Z,5.9
2022-10-04T06:02:32.416Z,5.9
2022-10-04T06:03:37.720Z,5.9
2022-10-04T06:04:43.011Z,5.9
2022-10-04T06:05:49.283Z,5.9
2022-10-04T06:06:55.555Z,6
2022-10-04T06:08:01.873Z,6
2022-10-04T06:09:08.095Z,6
2022-10-04T06:10:14.363Z,6
2022-10-04T06:11:20.674Z,6
2022-10-04T06:12:26.959Z,6
2022-10-04T06:13:33.187Z,6
2022-10-04T06:14:39.455Z,6
2022-10-04T06:15:45.731Z,6
2022-10-04T06:16:52.004Z,6.1
2022-10-04T06:17:58.272Z,6.1
2022-10-04T06:19:03.559Z,6.1
2022-10-04T06:20:09.863Z,6.1
2022-10-04T06:21:16.112Z,6.1
2022-10-04T06:22:22.379Z,6.1
2022-10-04T06:23:28.654Z,6.1
2022-10-04T06:24:34.933Z,6.1
2022-10-04T06:25:41.200Z,6.1
2022-10-04T06:26:46.504Z,6.2
2022-10-04T06:27:51.783Z,6.2
2022-10-04T06:28:58.064Z,6.2
2022-10-04T06:30:04.373Z,6.2
2022-10-04T06:31:10.597Z,6.2
2022-10-04T06:32:16.888Z,6.3
2022-10-04T06:33:23.188Z,6.3
2022-10-04T06:34:29.420Z,6.3
2022-10-04T06:35:35.707Z,6.3
2022-10-04T06:36:41.965Z,6.3
2022-10-04T06:37:48.238Z,6.4
2022-10-04T06:38:54.504Z,6.4
2022-10-04T06:40:00.813Z,6.4
2022-10-04T06:41:07.055Z,6.4
2022-10-04T06:42:12.356Z,6.4
2022-10-04T06:43:18.610Z,6.5
2022-10-04T06:44:24.943Z,6.5
2022-10-04T06:45:31.156Z,6.5
2022-10-04T06:46:37.430Z,6.5
2022-10-04T06:47:43.702Z,6.5
2022-10-04T06:48:49.992Z,6.6
2022-10-04T06:49:56.260Z,6.6
2022-10-04T06:51:01.552Z,6.6
2022-10-04T06:52:07.844Z,6.6
2022-10-04T06:53:13.118Z,6.7
2022-10-04T06:54:18.400Z,6.7
2022-10-04T06:55:24.675Z,6.7
2022-10-04T06:56:30.987Z,6.8
2022-10-04T06:57:37.248Z,6.8
2022-10-04T06:58:43.550Z,6.8
2022-10-04T06:59:49.803Z,6.8
2022-10-04T07:00:56.043Z,6.8
2022-10-04T07:02:02.308Z,6.8
2022-10-04T07:03:08.584Z,6.9
2022-10-04T07:04:14.855Z,6.9
2022-10-04T07:05:21.134Z,7
2022-10-04T07:06:27.399Z,7
2022-10-04T07:07:33.669Z,7
2022-10-04T07:08:38.962Z,7.1
2022-10-04T07:09:45.228Z,7.1
2022-10-04T07:10:51.505Z,7.2
2022-10-04T07:11:57.810Z,7.2
2022-10-04T07:13:03.142Z,7.2
2022-10-04T07:14:09.358Z,7.3
2022-10-04T07:15:15.614Z,7.3
2022-10-04T07:16:21.891Z,7.4
2022-10-04T07:17:28.155Z,7.4
2022-10-04T07:18:34.453Z,7.4
2022-10-04T07:19:40.709Z,7.5
2022-10-04T07:20:46.995Z,7.5
2022-10-04T07:21:53.293Z,7.6
2022-10-04T07:22:59.520Z,7.5
2022-10-04T07:24:05.789Z,7.6
2022-10-04T07:25:12.149Z,7.6
2022-10-04T07:26:18.336Z,7.6
2022-10-04T07:27:23.649Z,7.6
2022-10-04T07:28:29.898Z,7.6
2022-10-04T07:29:36.171Z,7.6
2022-10-04T07:30:42.450Z,7.6
2022-10-04T07:31:48.718Z,7.6
2022-10-04T07:32:54.995Z,7.6
2022-10-04T07:34:01.319Z,7.7
2022-10-04T07:35:07.551Z,7.6
2022-10-04T07:36:13.821Z,7.7
2022-10-04T07:37:20.133Z,7.7
2022-10-04T07:38:26.348Z,7.7
2022-10-04T07:39:32.622Z,7.7
2022-10-04T07:40:38.916Z,7.8
2022-10-04T07:41:44.179Z,7.8
2022-10-04T07:42:50.564Z,7.8
2022-10-04T07:43:56.724Z,7.9
2022-10-04T07:45:02.994Z,7.9
2022-10-04T07:46:09.267Z,8
2022-10-04T07:47:15.541Z,8
2022-10-04T07:48:21.823Z,8
2022-10-04T07:49:28.097Z,8.1
2022-10-04T07:50:34.359Z,8.1
2022-10-04T07:51:40.775Z,8.2
2022-10-04T07:52:46.926Z,8.2
2022-10-04T07:53:53.196Z,8.2
2022-10-04T07:54:59.450Z,8.3
2022-10-04T07:56:04.781Z,8.3
2022-10-04T07:57:11.004Z,8.3
2022-10-04T07:58:17.361Z,8.4
2022-10-04T07:59:23.605Z,8.4
2022-10-04T08:00:29.827Z,8.4
2022-10-04T08:01:36.094Z,8.5
2022-10-04T08:02:42.428Z,8.5
2022-10-04T08:03:48.660Z,8.5
2022-10-04T08:04:55.000Z,8.5
2022-10-04T08:06:00.211Z,8.5
2022-10-04T08:07:05.554Z,8.6
2022-10-04T08:08:11.872Z,8.6
2022-10-04T08:09:17.102Z,8.6
2022-10-04T08:10:22.370Z,8.7
2022-10-04T08:11:28.645Z,8.7
2022-10-04T08:12:34.895Z,8.7
2022-10-04T08:13:41.223Z,8.8
2022-10-04T08:14:47.444Z,8.8
2022-10-04T08:15:53.720Z,8.8
2022-10-04T08:17:00.070Z,8.8
2022-10-04T08:18:06.280Z,8.9
2022-10-04T08:19:12.533Z,8.9
2022-10-04T08:20:18.904Z,8.9
2022-10-04T08:21:25.105Z,8.9
2022-10-04T08:22:31.362Z,8.9
2022-10-04T08:23:37.619Z,9
2022-10-04T08:24:42.918Z,9
2022-10-04T08:25:49.183Z,9
2022-10-04T08:26:55.510Z,9.1
2022-10-04T08:28:01.732Z,9.1
2022-10-04T08:29:08.020Z,9.1
2022-10-04T08:30:14.273Z,9.1
2022-10-04T08:31:20.544Z,9.2
2022-10-04T08:32:26.845Z,9.2
2022-10-04T08:33:33.083Z,9.2
2022-10-04T08:34:38.389Z,9.3
2022-10-04T08:35:43.674Z,9.3
2022-10-04T08:36:49.964Z,9.3
2022-10-04T08:37:56.233Z,9.4
2022-10-04T08:39:02.481Z,9.4
2022-10-04T08:40:07.790Z,9.4
2022-10-04T08:41:14.088Z,9.4
2022-10-04T08:42:19.414Z,9.4
2022-10-04T08:43:25.624Z,9.4
2022-10-04T08:44:31.899Z,9.5
2022-10-04T08:45:38.175Z,9.5
2022-10-04T08:46:44.445Z,9.5
2022-10-04T08:47:50.714Z,9.5
2022-10-04T08:48:56.999Z,9.5
2022-10-04T08:50:03.250Z,9.5
2022-10-04T08:51:09.520Z,9.5
2022-10-04T08:52:15.798Z,9.5
2022-10-04T08:53:22.074Z,9.5
2022-10-04T08:54:28.366Z,9.6
2022-10-04T08:55:34.651Z,9.6
2022-10-04T08:56:39.922Z,9.6
2022-10-04T08:57:46.170Z,9.6
2022-10-04T08:58:52.460Z,9.7
2022-10-04T08:59:58.717Z,9.7
2022-10-04T09:01:04.987Z,9.8
2022-10-04T09:02:11.287Z,9.8
2022-10-04T09:03:16.564Z,9.9
2022-10-04T09:04:21.847Z,10
2022-10-04T09:05:28.133Z,10
2022-10-04T09:06:34.537Z,10.1
2022-10-04T09:07:40.726Z,10.2
2022-10-04T09:08:45.973Z,10.2
2022-10-04T09:09:51.281Z,10.3
2022-10-04T09:10:57.527Z,10.2
2022-10-04T09:12:03.905Z,10.3
2022-10-04T09:13:10.069Z,10.1
2022-10-04T09:14:16.335Z,10.1
2022-10-04T09:15:22.668Z,10.1
2022-10-04T09:16:28.975Z,10.2
2022-10-04T09:17:35.172Z,10.2
2022-10-04T09:18:41.493Z,10.3
2022-10-04T09:19:47.716Z,10.4
2022-10-04T09:20:53.974Z,10.4
2022-10-04T09:22:00.245Z,10.5
2022-10-04T09:23:06.521Z,10.5
2022-10-04T09:24:11.829Z,10.6
2022-10-04T09:25:18.112Z,10.6
2022-10-04T09:26:24.356Z,10.6
2022-10-04T09:27:30.627Z,10.6
2022-10-04T09:28:36.918Z,10.6
2022-10-04T09:29:43.171Z,10.6
2022-10-04T09:30:49.442Z,10.6
2022-10-04T09:31:55.713Z,10.6
2022-10-04T09:33:01.989Z,10.6
2022-10-04T09:34:08.264Z,10.6
2022-10-04T09:35:14.575Z,10.6
2022-10-04T09:36:20.835Z,10.5
2022-10-04T09:37:27.083Z,10.5
2022-10-04T09:38:32.364Z,10.5
2022-10-04T09:39:38.644Z,10.5
2022-10-04T09:40:43.950Z,10.5
2022-10-04T09:41:49.243Z,10.6
2022-10-04T09:42:55.499Z,10.6
2022-10-04T09:44:01.775Z,10.6
2022-10-04T09:45:07.105Z,10.7
2022-10-04T09:46:12.369Z,10.7
2022-10-04T09:47:18.659Z,10.8
2022-10-04T09:48:24.902Z,10.9
2022-10-04T09:49:31.173Z,10.9
2022-10-04T09:50:37.443Z,11
2022-10-04T09:51:43.724Z,11
2022-10-04T09:52:49.987Z,11.1
2022-10-04T09:53:56.260Z,11.1
2022-10-04T09:55:02.550Z,11.1
2022-10-04T09:56:08.796Z,11.1
2022-10-04T09:57:15.102Z,11
2022-10-04T09:58:21.346Z,11
2022-10-04T09:59:27.625Z,11
2022-10-04T10:00:32.902Z,11
2022-10-04T10:01:39.196Z,11
2022-10-04T10:02:45.456Z,11
2022-10-04T10:03:51.749Z,11
2022-10-04T10:04:57.995Z,11.1
2022-10-04T10:06:04.270Z,11.1
2022-10-04T10:07:10.533Z,11.2
2022-10-04T10:08:15.879Z,11.3
2022-10-04T10:09:21.224Z,11.4
2022-10-04T10:10:26.432Z,11.5
2022-10-04T10:11:31.820Z,11.6
2022-10-04T10:12:38.015Z,11.8
2022-10-04T10:13:44.372Z,11.9
2022-10-04T10:14:50.556Z,12
2022-10-04T10:15:56.797Z,12.1
2022-10-04T10:17:03.151Z,12.3
2022-10-04T10:18:09.427Z,12.4
2022-10-04T10:19:15.726Z,12.5
2022-10-04T10:20:21.890Z,12.6
2022-10-04T10:21:28.163Z,12.7
2022-10-04T10:22:34.526Z,12.8
2022-10-04T10:23:40.713Z,12.8
2022-10-04T10:24:47.011Z,12.9
2022-10-04T10:25:52.265Z,13
2022-10-04T10:26:58.549Z,13.1
2022-10-04T10:28:04.823Z,13.2
2022-10-04T10:29:11.152Z,13.4
2022-10-04T10:30:17.382Z,13.5
2022-10-04T10:31:23.647Z,13.6
2022-10-04T10:32:29.900Z,13.6
2022-10-04T10:33:35.195Z,13.6
2022-10-04T10:34:40.483Z,13.5
2022-10-04T10:35:45.799Z,13.5
2022-10-04T10:36:51.132Z,13.5
2022-10-04T10:37:57.339Z,13.6
2022-10-04T10:39:03.632Z,13.6
2022-10-04T10:40:09.951Z,13.8
2022-10-04T10:41:16.187Z,13.8
2022-10-04T10:42:22.462Z,13.7
2022-10-04T10:43:28.706Z,13.7
2022-10-04T10:44:34.978Z,13.8
2022-10-04T10:45:41.284Z,13.8
2022-10-04T10:46:47.567Z,13.9
2022-10-04T10:47:53.821Z,14
2022-10-04T10:49:00.066Z,14.1
2022-10-04T10:50:06.330Z,14.2
2022-10-04T10:51:11.645Z,14.2
2022-10-04T10:52:17.898Z,14.1
2022-10-04T10:53:24.168Z,14.1
2022-10-04T10:54:29.460Z,14.1
2022-10-04T10:55:35.733Z,14.1
2022-10-04T10:56:42.011Z,14
2022-10-04T10:57:48.319Z,13.9
2022-10-04T10:58:53.606Z,13.8
2022-10-04T10:59:59.873Z,13.8
2022-10-04T11:01:05.144Z,13.9
2022-10-04T11:02:10.439Z,13.9
2022-10-04T11:03:16.708Z,14.1
2022-10-04T11:04:22.979Z,14
2022-10-04T11:05:29.250Z,14
2022-10-04T11:06:35.692Z,14
2022-10-04T11:07:41.851Z,13.9
2022-10-04T11:08:48.075Z,13.9
2022-10-04T11:09:54.339Z,13.9
2022-10-04T11:11:00.629Z,14
2022-10-04T11:12:06.906Z,14.1
2022-10-04T11:13:13.158Z,14
2022-10-04T11:14:19.450Z,14
2022-10-04T11:15:25.696Z,14.1
2022-10-04T11:16:31.028Z,14.2
2022-10-04T11:17:37.259Z,14.3
2022-10-04T11:18:43.530Z,14.4
2022-10-04T11:19:49.859Z,14.5
2022-10-04T11:20:56.093Z,14.5
2022-10-04T11:22:02.357Z,14.6
2022-10-04T11:23:08.617Z,14.7
2022-10-04T11:24:14.926Z,14.8
2022-10-04T11:25:21.162Z,14.9
2022-10-04T11:26:27.438Z,15
2022-10-04T11:27:33.799Z,15
2022-10-04T11:28:39.035Z,15
2022-10-04T11:29:44.404Z,15.1
2022-10-04T11:30:50.632Z,15.2
2022-10-04T11:31:56.837Z,15.3
2022-10-04T11:33:02.139Z,15.3
2022-10-04T11:34:07.426Z,15.4
2022-10-04T11:35:13.731Z,15.4
2022-10-04T11:36:20.003Z,15.5
2022-10-04T11:37:26.240Z,15.5
2022-10-04T11:38:32.542Z,15.6
2022-10-04T11:39:38.789Z,15.6
2022-10-04T11:40:45.053Z,15.6
2022-10-04T11:41:51.357Z,15.6
2022-10-04T11:42:57.611Z,15.6
2022-10-04T11:44:03.910Z,15.5
2022-10-04T11:45:10.164Z,15.3
2022-10-04T11:46:16.432Z,15.1
2022-10-04T11:47:22.687Z,15.1
2022-10-04T11:48:28.038Z,15
2022-10-04T11:49:34.293Z,15
2022-10-04T11:50:40.526Z,15.1
2022-10-04T11:51:46.911Z,15.2
2022-10-04T11:52:53.105Z,15.3
2022-10-04T11:53:59.336Z,15.3
2022-10-04T11:55:05.612Z,15.4
2022-10-04T11:56:10.913Z,15.5
2022-10-04T11:57:16.319Z,15.5
2022-10-04T11:58:21.498Z,15.4
2022-10-04T11:59:26.779Z,15.4
2022-10-04T12:00:33.059Z,15.4
2022-10-04T12:01:39.346Z,15.4
2022-10-04T12:02:45.600Z,15.5
2022-10-04T12:03:51.904Z,15.6
2022-10-04T12:04:58.163Z,15.6
2022-10-04T12:06:04.418Z,15.7
2022-10-04T12:07:10.698Z,15.7
2022-10-04T12:08:17.077Z,15.8
2022-10-04T12:09:23.247Z,15.8
2022-10-04T12:10:29.536Z,15.7
2022-10-04T12:11:35.770Z,15.7
2022-10-04T12:12:42.060Z,15.8
2022-10-04T12:13:47.337Z,15.7
2022-10-04T12:14:53.606Z,15.7
2022-10-04T12:15:59.974Z,15.8
2022-10-04T12:17:06.190Z,15.8
2022-10-04T12:18:12.457Z,15.9
2022-10-04T12:19:18.689Z,15.9
2022-10-04T12:20:24.969Z,15.9
2022-10-04T12:21:31.308Z,15.9
2022-10-04T12:22:37.545Z,16
2022-10-04T12:23:43.790Z,16
2022-10-04T12:24:50.063Z,16.2
2022-10-04T12:25:56.323Z,16.3
2022-10-04T12:27:02.600Z,16.4
2022-10-04T12:28:07.889Z,16.4
2022-10-04T12:29:14.195Z,16.6
2022-10-04T12:30:20.429Z,16.7
2022-10-04T12:31:26.736Z,16.8
2022-10-04T12:32:32.977Z,16.9
2022-10-04T12:33:39.280Z,16.9
2022-10-04T12:34:45.580Z,17
2022-10-04T12:35:51.834Z,17.1
2022-10-04T12:36:58.062Z,17.1
2022-10-04T12:38:04.336Z,17.2
2022-10-04T12:39:10.659Z,17.2
2022-10-04T12:40:16.878Z,17.2
2022-10-04T12:41:23.154Z,17.2
2022-10-04T12:42:28.441Z,17.2
2022-10-04T12:43:34.751Z,17.2
2022-10-04T12:44:41.015Z,17.1
2022-10-04T12:45:47.256Z,16.9
2022-10-04T12:46:53.653Z,16.9
2022-10-04T12:47:59.880Z,17
2022-10-04T12:49:06.133Z,17
2022-10-04T12:50:12.349Z,17.1
2022-10-04T12:51:18.622Z,17.2
2022-10-04T12:52:24.897Z,17.4
2022-10-04T12:53:31.159Z,17.5
2022-10-04T12:54:37.439Z,17.6
2022-10-04T12:55:43.790Z,17.7
2022-10-04T12:56:49.030Z,17.7
2022-10-04T12:57:55.345Z,17.7
2022-10-04T12:59:01.589Z,17.7
2022-10-04T13:00:07.810Z,17.7
2022-10-04T13:01:14.082Z,17.7
2022-10-04T13:02:20.361Z,17.7
2022-10-04T13:03:26.631Z,17.7
2022-10-04T13:04:32.907Z,17.6
2022-10-04T13:05:39.178Z,17.4
2022-10-04T13:06:45.477Z,17.3
2022-10-04T13:07:51.721Z,17.3
2022-10-04T13:08:57.994Z,17.2
2022-10-04T13:10:04.261Z,17.2
2022-10-04T13:11:09.597Z,17.1
2022-10-04T13:12:15.842Z,17
2022-10-04T13:13:22.108Z,17
2022-10-04T13:14:28.385Z,17
2022-10-04T13:15:34.633Z,17
2022-10-04T13:16:40.904Z,16.9
2022-10-04T13:17:47.181Z,16.9
2022-10-04T13:18:53.451Z,16.9
2022-10-04T13:19:58.766Z,17
2022-10-04T13:21:04.047Z,17
2022-10-04T13:22:09.343Z,17.1
2022-10-04T13:23:14.685Z,17.1
2022-10-04T13:24:20.955Z,17.2
2022-10-04T13:25:27.193Z,17.3
2022-10-04T13:26:33.443Z,17.3
2022-10-04T13:27:39.722Z,17.3
2022-10-04T13:28:46.059Z,17.2
2022-10-04T13:29:52.259Z,17.1
2022-10-04T13:30:58.534Z,17.1
2022-10-04T13:32:04.860Z,17.1
2022-10-04T13:33:11.077Z,17.1
2022-10-04T13:34:17.345Z,17.1
2022-10-04T13:35:23.674Z,17
2022-10-04T13:36:29.954Z,16.7
2022-10-04T13:37:35.178Z,16.6
2022-10-04T13:38:41.463Z,16.6
2022-10-04T13:39:47.721Z,16.6
2022-10-04T13:40:53.995Z,16.6
2022-10-04T13:42:00.384Z,16.6
2022-10-04T13:43:06.550Z,16.6
2022-10-04T13:44:12.814Z,16.6
2022-10-04T13:45:18.162Z,16.5
2022-10-04T13:46:23.395Z,16.6
2022-10-04T13:47:29.671Z,16.6
2022-10-04T13:48:34.965Z,16.6
2022-10-04T13:49:40.261Z,16.6
2022-10-04T13:50:46.558Z,16.7
2022-10-04T13:51:52.821Z,16.7
2022-10-04T13:52:59.079Z,16.7
2022-10-04T13:54:05.366Z,16.7
2022-10-04T13:55:11.677Z,16.8
2022-10-04T13:56:17.912Z,16.7
2022-10-04T13:57:24.198Z,16.7
2022-10-04T13:58:30.511Z,16.6
2022-10-04T13:59:36.730Z,16.7
2022-10-04T14:00:42.980Z,16.7
2022-10-04T14:01:49.284Z,16.8
2022-10-04T14:02:55.531Z,16.9
2022-10-04T14:04:00.856Z,16.9
2022-10-04T14:05:07.083Z,16.9
2022-10-04T14:06:13.352Z,17
2022-10-04T14:07:19.626Z,17
2022-10-04T14:08:25.889Z,17
2022-10-04T14:09:32.167Z,17
2022-10-04T14:10:38.444Z,17
2022-10-04T14:11:44.828Z,17
2022-10-04T14:12:51.129Z,17
2022-10-04T14:13:57.263Z,17
2022-10-04T14:15:03.577Z,17
2022-10-04T14:16:09.880Z,17
2022-10-04T14:17:16.156Z,16.9
2022-10-04T14:18:22.449Z,16.9
2022-10-04T14:19:27.627Z,16.9
2022-10-04T14:20:33.922Z,16.9
2022-10-04T14:21:40.328Z,16.9
2022-10-04T14:22:46.480Z,16.9
2022-10-04T14:23:52.716Z,16.9
2022-10-04T14:24:58.985Z,16.9
2022-10-04T14:26:05.256Z,16.9
2022-10-04T14:27:10.647Z,17
2022-10-04T14:28:15.918Z,16.9
2022-10-04T14:29:21.184Z,16.9
2022-10-04T14:30:26.448Z,16.9
2022-10-04T14:31:32.808Z,16.8
2022-10-04T14:32:38.999Z,16.8
2022-10-04T14:33:45.251Z,16.8
2022-10-04T14:34:51.576Z,16.8
2022-10-04T14:35:56.863Z,16.7
2022-10-04T14:37:03.149Z,16.7
2022-10-04T14:38:09.388Z,16.6
2022-10-04T14:39:15.745Z,16.6
2022-10-04T14:40:21.903Z,16.5
2022-10-04T14:41:28.175Z,16.5
2022-10-04T14:42:34.449Z,16.5
2022-10-04T14:43:40.744Z,16.5
2022-10-04T14:44:47.015Z,16.4
2022-10-04T14:45:53.262Z,16.4
2022-10-04T14:46:59.587Z,16.4
2022-10-04T14:48:05.815Z,16.4
2022-10-04T14:49:12.080Z,16.4
2022-10-04T14:50:17.368Z,16.4
2022-10-04T14:51:23.638Z,16.4
2022-10-04T14:52:29.934Z,16.4
2022-10-04T14:53:36.187Z,16.4
2022-10-04T14:54:42.474Z,16.4
2022-10-04T14:55:48.774Z,16.3
2022-10-04T14:56:55.100Z,16.3
2022-10-04T14:58:01.317Z,16.3
2022-10-04T14:59:07.581Z,16.3
2022-10-04T15:00:13.812Z,16.3
2022-10-04T15:01:20.089Z,16.3
2022-10-04T15:02:26.382Z,16.3